createdAt,value
2024-04-21T03:31:38.258Z,56.74
2024-04-21T03:34:05.524Z,55.93
2024-04-21T03:36:32.693Z,55.13
2024-04-21T03:38:59.850Z,54.43
2024-04-21T03:41:27.029Z,54.50
2024-04-21T03:43:54.329Z,53.92
2024-04-21T03:46:24.278Z,53.13
2024-04-21T03:48:52.202Z,53.10
2024-04-21T03:51:19.491Z,53.04
2024-04-21T03:53:46.565Z,57.58
2024-04-21T03:56:13.713Z,56.06
2024-04-21T03:58:40.823Z,56.45
2024-04-21T04:01:08.071Z,55.90
2024-04-21T04:03:35.332Z,54.96
2024-04-21T04:06:02.817Z,55.56
2024-04-21T04:08:29.904Z,58.45
2024-04-21T04:10:57.048Z,58.61
2024-04-21T04:13:24.282Z,57.81
2024-04-21T04:15:51.492Z,57.32
2024-04-21T04:18:18.681Z,55.71
2024-04-21T04:20:47.028Z,55.80
2024-04-21T04:23:14.215Z,55.95
2024-04-21T04:25:41.378Z,56.25
2024-04-21T04:28:09.374Z,55.73
2024-04-21T04:30:37.428Z,56.99
2024-04-21T04:33:04.954Z,57.69
2024-04-21T04:35:32.133Z,57.68
2024-04-21T04:37:59.701Z,60.43
2024-04-21T04:40:26.861Z,61.17
2024-04-21T04:42:54.046Z,60.48
2024-04-21T04:45:21.874Z,58.74
2024-04-21T04:47:49.133Z,57.17
2024-04-21T04:50:16.423Z,56.37
2024-04-21T04:52:43.581Z,55.49
2024-04-21T04:55:10.826Z,54.87
2024-04-21T04:57:37.931Z,55.99
2024-04-21T05:00:06.774Z,56.75
2024-04-21T05:02:34.786Z,56.02
2024-04-21T05:05:02.127Z,55.47
2024-04-21T05:07:29.264Z,57.07
2024-04-21T05:09:56.454Z,58.22
2024-04-21T05:12:23.663Z,57.28
2024-04-21T05:14:50.868Z,59.19
2024-04-21T05:17:18.091Z,60.09
2024-04-21T05:19:45.271Z,60.29
2024-04-21T05:22:12.463Z,59.70
2024-04-21T05:24:39.657Z,58.27
2024-04-21T05:27:06.860Z,61.27
2024-04-21T05:29:34.327Z,63.00
2024-04-21T05:32:01.497Z,64.38
2024-04-21T05:34:30.538Z,62.06
2024-04-21T05:36:57.885Z,61.74
2024-04-21T05:39:26.532Z,61.29
2024-04-21T05:41:53.715Z,59.46
2024-04-21T05:44:20.958Z,60.24
2024-04-21T05:46:48.092Z,63.45
2024-04-21T05:49:15.597Z,64.10
2024-04-21T05:51:42.774Z,62.55
2024-04-21T05:54:09.982Z,63.95
2024-04-21T05:56:37.241Z,62.51
2024-04-21T05:59:04.371Z,60.66
2024-04-21T06:01:31.541Z,61.74
2024-04-21T06:03:58.875Z,60.51
2024-04-21T06:06:26.050Z,60.31
2024-04-21T06:08:53.315Z,63.24
2024-04-21T06:11:20.452Z,62.90
2024-04-21T06:13:47.649Z,63.05
2024-04-21T06:16:14.982Z,62.18
2024-04-21T06:18:45.520Z,62.00
2024-04-21T06:21:15.035Z,61.49
2024-04-21T06:23:42.200Z,62.50
2024-04-21T06:26:09.522Z,61.15
2024-04-21T06:28:36.725Z,60.21
2024-04-21T06:31:04.074Z,59.70
2024-04-21T06:33:31.314Z,59.92
2024-04-21T06:35:58.722Z,62.21
2024-04-21T06:38:26.361Z,63.22
2024-04-21T06:40:53.474Z,62.67
2024-04-21T06:43:20.678Z,61.34
2024-04-21T06:45:48.130Z,63.45
2024-04-21T06:48:15.722Z,61.97
2024-04-21T06:50:49.040Z,60.90
2024-04-21T06:53:16.132Z,62.43
2024-04-21T06:55:43.279Z,63.33
2024-04-21T06:58:10.550Z,62.55
2024-04-21T07:00:37.706Z,65.14
2024-04-21T07:03:08.313Z,63.69
2024-04-21T07:05:37.908Z,63.49
2024-04-21T07:08:05.411Z,63.36
2024-04-21T07:10:32.661Z,61.87
2024-04-21T07:12:59.778Z,62.86
2024-04-21T07:15:27.003Z,62.50
2024-04-21T07:17:54.197Z,62.22
2024-04-21T07:20:22.929Z,62.37
2024-04-21T07:22:50.260Z,62.22
2024-04-21T07:25:24.563Z,61.95
2024-04-21T07:27:53.140Z,61.34
2024-04-21T07:30:20.406Z,62.53
2024-04-21T07:32:47.658Z,61.56
2024-04-21T07:35:15.540Z,63.61
2024-04-21T07:37:42.782Z,61.55
2024-04-21T07:40:10.064Z,61.13
2024-04-21T07:42:38.275Z,60.63
2024-04-21T07:45:05.822Z,60.24
2024-04-21T07:47:33.759Z,60.72
2024-04-21T07:50:01.202Z,61.52
2024-04-21T07:52:28.421Z,62.32
2024-04-21T07:54:55.789Z,61.09
2024-04-21T07:57:22.932Z,61.27
2024-04-21T07:59:50.087Z,58.13
2024-04-21T08:02:17.249Z,59.80
2024-04-21T08:04:44.425Z,65.47
2024-04-21T08:07:11.647Z,64.23
2024-04-21T08:09:38.779Z,64.73
2024-04-21T08:12:06.347Z,61.63
2024-04-21T08:14:33.546Z,60.99
2024-04-21T08:17:00.646Z,61.66
2024-04-21T08:19:28.202Z,60.75
2024-04-21T08:21:55.384Z,59.92
2024-04-21T08:24:22.609Z,61.02
2024-04-21T08:26:50.643Z,61.44
2024-04-21T08:29:18.089Z,62.46
2024-04-21T08:31:45.247Z,62.29
2024-04-21T08:34:12.496Z,65.29
2024-04-21T08:36:39.622Z,62.73
2024-04-21T08:39:06.911Z,61.49
2024-04-21T08:41:41.132Z,65.82
2024-04-21T08:44:12.465Z,61.43
2024-04-21T08:46:39.713Z,63.52
2024-04-21T08:49:09.657Z,65.23
2024-04-21T08:51:37.633Z,64.11
2024-04-21T08:54:04.928Z,66.39
2024-04-21T08:56:32.379Z,66.46
2024-04-21T08:58:59.949Z,65.91
2024-04-21T09:01:30.637Z,65.67
2024-04-21T09:03:57.987Z,67.44
2024-04-21T09:06:26.521Z,71.35
2024-04-21T09:08:54.383Z,70.44
2024-04-21T09:11:21.597Z,67.44
2024-04-21T09:13:50.119Z,67.10
2024-04-21T09:16:17.352Z,66.71
2024-04-21T09:18:44.649Z,69.95
2024-04-21T09:21:12.315Z,69.63
2024-04-21T09:23:42.214Z,68.78
2024-04-21T09:26:10.115Z,67.42
2024-04-21T09:28:37.395Z,68.47
2024-04-21T09:31:04.915Z,66.22
2024-04-21T09:33:32.151Z,64.57
2024-04-21T09:35:59.875Z,65.02
2024-04-21T09:38:27.095Z,63.90
2024-04-21T09:40:56.219Z,61.84
2024-04-21T09:43:24.418Z,61.86
2024-04-21T09:45:52.032Z,63.87
2024-04-21T09:48:20.149Z,62.79
2024-04-21T09:50:47.477Z,64.00
2024-04-21T09:53:15.288Z,61.40
2024-04-21T09:55:43.840Z,66.45
2024-04-21T09:58:12.904Z,65.72
2024-04-21T10:00:40.881Z,64.98
2024-04-21T10:03:08.153Z,64.48
2024-04-21T10:05:35.274Z,64.86
2024-04-21T10:08:02.521Z,65.82
2024-04-21T10:10:32.907Z,63.31
2024-04-21T10:13:00.286Z,63.97
2024-04-21T10:15:27.502Z,65.30
2024-04-21T10:17:58.762Z,67.11
2024-04-21T10:20:37.302Z,72.78
2024-04-21T10:23:06.663Z,73.11
2024-04-21T10:25:34.846Z,66.63
2024-04-21T10:28:12.454Z,65.31
2024-04-21T10:30:39.707Z,67.43
2024-04-21T10:33:12.235Z,69.69
2024-04-21T10:35:40.686Z,69.75
2024-04-21T10:38:08.734Z,64.35
2024-04-21T10:40:37.148Z,65.04
2024-04-21T10:43:04.542Z,64.34
2024-04-21T10:45:37.536Z,64.43
2024-04-21T10:48:05.688Z,62.13
2024-04-21T10:50:33.546Z,70.05
2024-04-21T10:53:00.750Z,66.94
2024-04-21T10:55:27.962Z,65.33
2024-04-21T10:57:55.208Z,61.58
2024-04-21T11:00:22.449Z,58.61
2024-04-21T11:02:49.660Z,60.93
2024-04-21T11:05:17.279Z,61.29
2024-04-21T11:07:44.555Z,58.27
2024-04-21T11:10:11.799Z,64.23
2024-04-21T11:12:38.949Z,63.03
2024-04-21T11:15:06.521Z,61.63
2024-04-21T11:17:34.287Z,62.23
2024-04-21T11:20:01.442Z,64.88
2024-04-21T11:22:28.631Z,61.01
2024-04-21T11:24:55.820Z,63.75
2024-04-21T11:27:23.242Z,61.28
2024-04-21T11:29:50.508Z,63.33
2024-04-21T11:32:17.685Z,65.11
2024-04-21T11:34:45.595Z,64.51
2024-04-21T11:37:21.113Z,63.71
2024-04-21T11:39:48.295Z,62.75
2024-04-21T11:42:15.477Z,58.19
2024-04-21T11:44:42.943Z,63.00
2024-04-21T11:47:10.126Z,63.59
2024-04-21T11:49:37.365Z,60.16
2024-04-21T11:52:04.865Z,62.46
2024-04-21T11:54:32.091Z,58.51
2024-04-21T11:56:59.255Z,60.42
2024-04-21T11:59:27.026Z,58.08
2024-04-21T12:01:54.241Z,63.61
2024-04-21T12:04:22.183Z,61.29
2024-04-21T12:06:49.485Z,61.72
2024-04-21T12:09:16.637Z,59.18
2024-04-21T12:11:43.827Z,55.64
2024-04-21T12:14:34.205Z,58.70
2024-04-21T12:17:01.580Z,58.09
2024-04-21T12:19:33.049Z,57.37
2024-04-21T12:22:00.667Z,58.82
2024-04-21T12:24:27.890Z,55.76
2024-04-21T12:26:55.082Z,56.54
2024-04-21T12:29:22.861Z,60.28
2024-04-21T12:31:50.032Z,61.84
2024-04-21T12:34:17.261Z,62.02
2024-04-21T12:36:44.537Z,58.73
2024-04-21T12:39:11.722Z,58.07
2024-04-21T12:41:38.884Z,60.36
2024-04-21T12:44:06.068Z,62.84
2024-04-21T12:46:33.347Z,62.82
2024-04-21T12:49:00.946Z,64.34
2024-04-21T12:51:28.142Z,66.10
2024-04-21T12:53:55.278Z,66.18
2024-04-21T12:56:23.327Z,65.23
2024-04-21T12:58:50.404Z,64.56
2024-04-21T13:01:18.937Z,64.14
2024-04-21T13:03:46.210Z,64.47
2024-04-21T13:06:13.349Z,64.61
2024-04-21T13:08:41.978Z,66.67
2024-04-21T13:11:09.293Z,66.17
2024-04-21T13:13:36.503Z,64.99
2024-04-21T13:16:03.852Z,64.87
2024-04-21T13:18:31.055Z,63.91
2024-04-21T13:20:59.344Z,58.22
2024-04-21T13:23:26.536Z,63.47
2024-04-21T13:25:53.704Z,64.70
2024-04-21T13:28:20.886Z,63.63
2024-04-21T13:30:48.056Z,60.53
2024-04-21T13:33:15.948Z,63.73
2024-04-21T13:35:43.258Z,64.16
2024-04-21T13:38:10.365Z,62.85
2024-04-21T13:40:37.682Z,64.96
2024-04-21T13:43:04.965Z,63.13
2024-04-21T13:45:32.233Z,62.55
2024-04-21T13:47:59.433Z,63.32
2024-04-21T13:50:27.173Z,62.73
2024-04-21T13:52:54.283Z,62.74
2024-04-21T13:55:21.483Z,64.74
2024-04-21T13:57:48.625Z,63.27
2024-04-21T14:00:16.008Z,64.39
2024-04-21T14:02:43.122Z,66.59
2024-04-21T14:05:10.369Z,66.82
2024-04-21T14:07:37.559Z,67.61
2024-04-21T14:10:06.818Z,68.04
2024-04-21T14:12:33.950Z,69.79
2024-04-21T14:15:01.210Z,67.58
2024-04-21T14:17:30.686Z,66.95
2024-04-21T14:19:57.937Z,65.28
2024-04-21T14:22:25.093Z,66.04
2024-04-21T14:24:52.268Z,66.91
2024-04-21T14:27:19.411Z,72.44
2024-04-21T14:29:49.122Z,71.07
2024-04-21T14:32:19.216Z,68.76
2024-04-21T14:34:46.397Z,69.49
2024-04-21T14:37:13.537Z,70.31
2024-04-21T14:39:40.731Z,71.21
2024-04-21T14:42:07.920Z,70.79
2024-04-21T14:44:38.131Z,70.83
2024-04-21T14:47:05.742Z,68.02
2024-04-21T14:49:33.171Z,68.90
2024-04-21T14:52:01.126Z,68.35
2024-04-21T14:54:28.358Z,70.65
2024-04-21T14:56:55.602Z,69.97
2024-04-21T14:59:23.308Z,67.31
2024-04-21T15:01:50.537Z,63.69
2024-04-21T15:04:19.304Z,60.10
2024-04-21T15:06:46.631Z,57.69
2024-04-21T15:09:13.716Z,60.71
2024-04-21T15:11:40.872Z,63.29
2024-04-21T15:14:07.972Z,62.40
2024-04-21T15:16:38.026Z,62.34
2024-04-21T15:19:06.110Z,67.11
2024-04-21T15:21:33.305Z,63.45
2024-04-21T15:24:00.466Z,62.48
2024-04-21T15:26:27.603Z,65.21
2024-04-21T15:28:54.794Z,64.12
2024-04-21T15:31:22.060Z,67.76
2024-04-21T15:33:49.314Z,66.29
2024-04-21T15:36:16.846Z,67.09
2024-04-21T15:38:43.995Z,65.17
2024-04-21T15:41:11.182Z,67.95
2024-04-21T15:43:38.451Z,66.64
2024-04-21T15:46:05.719Z,68.57
2024-04-21T15:48:33.203Z,69.99
2024-04-21T15:51:05.100Z,69.70
2024-04-21T15:53:32.208Z,69.33
2024-04-21T15:56:02.471Z,70.11
2024-04-21T15:58:30.445Z,71.03
2024-04-21T16:00:58.232Z,72.26
2024-04-21T16:03:25.560Z,71.11
2024-04-21T16:05:52.817Z,69.21
2024-04-21T16:08:19.916Z,67.49
2024-04-21T16:10:47.330Z,67.43
2024-04-21T16:13:14.688Z,65.88
2024-04-21T16:15:42.795Z,69.64
2024-04-21T16:18:09.941Z,69.89
2024-04-21T16:20:37.159Z,70.28
2024-04-21T16:23:04.487Z,69.89
2024-04-21T16:25:35.083Z,69.88
2024-04-21T16:28:04.197Z,66.43
2024-04-21T16:30:33.161Z,68.91
2024-04-21T16:33:00.533Z,70.58
2024-04-21T16:35:28.141Z,70.77
2024-04-21T16:37:55.567Z,71.35
2024-04-21T16:40:23.447Z,71.96
2024-04-21T16:42:50.925Z,73.17
2024-04-21T16:45:18.414Z,69.90
2024-04-21T16:47:50.926Z,71.58
2024-04-21T16:50:18.716Z,71.92
2024-04-21T16:52:46.809Z,69.13
2024-04-21T16:55:14.979Z,68.91
2024-04-21T16:57:54.704Z,69.49
2024-04-21T17:00:23.101Z,69.91
2024-04-21T17:02:51.728Z,70.70
2024-04-21T17:05:19.357Z,72.27
2024-04-21T17:08:14.458Z,71.13
2024-04-21T17:10:41.775Z,69.23
2024-04-21T17:13:09.035Z,71.55
2024-04-21T17:15:36.230Z,74.42
2024-04-21T17:18:04.638Z,74.64
2024-04-21T17:20:33.770Z,77.06
2024-04-21T17:23:01.022Z,73.70
2024-04-21T17:25:28.261Z,74.20
2024-04-21T17:27:55.502Z,71.81
2024-04-21T17:30:27.947Z,75.06
2024-04-21T17:32:55.677Z,74.34
2024-04-21T17:35:24.745Z,75.06
2024-04-21T17:37:52.264Z,75.22
2024-04-21T17:40:19.602Z,76.93
2024-04-21T17:42:46.847Z,77.78
2024-04-21T17:45:14.298Z,77.69
2024-04-21T17:47:41.513Z,80.00
2024-04-21T17:50:08.839Z,80.53
2024-04-21T17:52:36.120Z,80.34
2024-04-21T17:55:05.206Z,79.07
2024-04-21T17:57:34.447Z,78.46
2024-04-21T18:00:01.955Z,76.76
2024-04-21T18:02:32.373Z,77.16
2024-04-21T18:04:59.666Z,75.69
2024-04-21T18:07:27.366Z,74.43
2024-04-21T18:09:54.518Z,75.40
2024-04-21T18:12:21.704Z,73.73
2024-04-21T18:14:48.849Z,67.88
2024-04-21T18:17:25.627Z,71.03
2024-04-21T18:19:55.219Z,70.02
2024-04-21T18:22:22.423Z,66.46
2024-04-21T18:24:49.537Z,63.37
2024-04-21T18:27:16.692Z,60.88
2024-04-21T18:29:44.209Z,59.43
2024-04-21T18:32:11.645Z,58.82
2024-04-21T18:34:38.821Z,58.40
2024-04-21T18:37:07.430Z,61.76
2024-04-21T18:39:35.263Z,66.42
2024-04-21T18:42:03.259Z,61.18
2024-04-21T18:44:30.411Z,58.99
2024-04-21T18:46:57.650Z,60.48
2024-04-21T18:49:25.935Z,62.84
2024-04-21T18:51:53.109Z,60.69
2024-04-21T18:54:22.419Z,60.59
2024-04-21T18:56:50.048Z,63.15
2024-04-21T18:59:17.178Z,61.99
2024-04-21T19:01:44.436Z,65.31
2024-04-21T19:04:11.740Z,70.30
2024-04-21T19:06:39.010Z,72.92
2024-04-21T19:09:06.476Z,70.24
2024-04-21T19:11:34.687Z,73.35
2024-04-21T19:14:02.117Z,76.02
2024-04-21T19:16:31.754Z,74.15
2024-04-21T19:19:00.433Z,70.50
2024-04-21T19:21:27.959Z,69.76
2024-04-21T19:23:55.501Z,69.79
2024-04-21T19:26:22.673Z,68.93
2024-04-21T19:28:51.594Z,68.12
2024-04-21T19:31:18.802Z,69.95
2024-04-21T19:33:46.183Z,65.92
2024-04-21T19:36:13.379Z,66.83
2024-04-21T19:38:40.661Z,63.54
2024-04-21T19:41:08.658Z,64.58
2024-04-21T19:43:35.962Z,67.38
2024-04-21T19:46:03.474Z,63.89
2024-04-21T19:48:30.649Z,62.94
2024-04-21T19:51:01.164Z,63.76
2024-04-21T19:53:28.348Z,63.74
2024-04-21T19:55:55.848Z,64.16
2024-04-21T19:58:23.033Z,67.40
2024-04-21T20:00:52.484Z,66.96
2024-04-21T20:03:21.635Z,67.79
2024-04-21T20:05:48.857Z,67.12
2024-04-21T20:08:17.041Z,67.04
2024-04-21T20:10:44.322Z,65.43
2024-04-21T20:13:11.938Z,64.37
2024-04-21T20:15:57.628Z,68.53
2024-04-21T20:18:41.202Z,68.27
2024-04-21T20:21:08.426Z,71.62
2024-04-21T20:23:35.520Z,72.94
2024-04-21T20:26:05.646Z,77.33
2024-04-21T20:28:32.950Z,76.55
2024-04-21T20:31:00.169Z,76.22
2024-04-21T20:33:27.521Z,73.33
2024-04-21T20:35:54.706Z,77.21
2024-04-21T20:38:21.854Z,73.39
2024-04-21T20:40:49.032Z,71.64
2024-04-21T20:43:16.249Z,70.59
2024-04-21T20:45:43.556Z,74.67
2024-04-21T20:48:11.190Z,73.41
2024-04-21T20:50:38.398Z,73.28
2024-04-21T20:53:05.889Z,73.48
2024-04-21T20:55:33.157Z,72.51
2024-04-21T20:58:00.331Z,76.78
2024-04-21T21:00:28.258Z,77.84
2024-04-21T21:02:55.483Z,73.20
2024-04-21T21:05:22.637Z,70.18
2024-04-21T21:07:49.816Z,65.91
2024-04-21T21:10:17.076Z,64.96
2024-04-21T21:12:46.819Z,64.98
2024-04-21T21:15:14.504Z,66.33
2024-04-21T21:17:42.453Z,68.82
2024-04-21T21:20:10.981Z,71.06
2024-04-21T21:22:39.732Z,68.03
2024-04-21T21:25:07.086Z,65.16
2024-04-21T21:27:35.182Z,67.30
2024-04-21T21:30:02.401Z,67.85
2024-04-21T21:32:29.724Z,68.64
2024-04-21T21:34:57.117Z,71.60
2024-04-21T21:37:24.272Z,74.10
2024-04-21T21:39:51.466Z,72.40
2024-04-21T21:42:18.652Z,69.07
2024-04-21T21:44:45.838Z,67.02
2024-04-21T21:47:13.037Z,64.56
2024-04-21T21:49:40.257Z,68.59
2024-04-21T21:52:07.439Z,67.01
2024-04-21T21:54:36.114Z,63.83
2024-04-21T21:57:04.072Z,60.88
2024-04-21T21:59:31.499Z,62.11
